Página principal
METAR-TAF:

METAR-TAF

Aeroportos :

Aeroporto de Perth

Perth, Austrália

latitude: 31-56S, longitude: 115-57E, altura: 20 m

Observação actual do tempo

O boletim foi feito há 33 minutos, às 11:30 UTC
Vento 8 kt de es-sudeste
Temperatura 21°C
Humidade 38%
Pressão 1018 hPa
Visibilidade 10 km ou mais
sem nuvens abaixo de 1500 metros e sem cumulonimbus

METAR: YPPH 301130Z 12008KT CAVOK 21/06 Q1018

Hora: 20:03 (12:03 UTC)

Previsão

O boletim foi feito há 3 horas e 35 minutos, às 08:28 UTC
Previsão válida de 30 às 09 UTC a 01 às 12 UTC
Vento 8 kt de sudeste
Visibilidade 10 km ou mais
sem nuvens abaixo de 1500 metros e sem cumulonimbus
A partir de 01 às 0100 UTC
Vento 10 kt de sul
Visibilidade 10 km ou mais
sem nuvens abaixo de 1500 metros e sem cumulonimbus
A partir de 01 às 1100 UTC
Vento 13 kt de sudeste
Visibilidade 10 km ou mais
sem nuvens abaixo de 1500 metros e sem cumulonimbus

TAF: YPPH 300828Z 3009/0112 13008KT CAVOK FM010100 18010KT CAVOK FM011100 14013KT CAVOK

Observações e previsões do tempo de mais de 4000 aeroportos (mensagens METAR e TAF).

As estações disponíveis são os pontos amarelos e vermelhos sobre o mapa.

Mova o rato sobre o mapa para ver o nome da estação.

Depois clique no ponto para visualizar as observações e previsões meteorológicas.

Para alterar o mapa : clique nos botões verdes com uma cruz preta para aumentar o zoom; no botão verde com uma pitada de zoom; ou nas setas verdes para mapas adjacentes.


METAR-TAF: